Darlington, New Jersey
Current Conditions -  °F | °C
As of 6:51 AM on Sunday 21 Dec 2014 (Local Time) from KTEB Reporting Station
Overcast Overcast  
Wind Chill: -4°   Ceiling: 2200
Heat Index: -1°   Visibility: 8mi
Dew Point: -4°   Wind: 6mph
Humidity: 79%   Direction: 330°NNW
Pressure: 30.3"   Gusts: NA
Location:  41.0594°N, 74.1457°W
Report Text: KTEB 211151Z 33005KT 8SM OVC022 M01/M04 A3030 RMK AO2 SLP260 T10061039 10000 21006 53005
Loading
Personal Weather Stations






























Interactive Weather Map New forecast layout! Learn more

10-Day Weather Forecast

Advertisements
Track Severe Weather on mobile